createdAt,value
2023-01-04T00:00:10.284Z,23.3600
2023-01-04T00:00:21.443Z,23.3700
2023-01-04T00:00:32.628Z,23.3700
2023-01-04T00:00:43.805Z,23.3700
2023-01-04T00:00:55.001Z,23.3700
2023-01-04T00:01:06.164Z,23.3600
2023-01-04T00:01:17.350Z,23.3600
2023-01-04T00:01:28.571Z,23.3600
2023-01-04T00:01:39.747Z,23.3600
2023-01-04T00:01:50.952Z,23.3600
2023-01-04T00:02:02.283Z,23.3600
2023-01-04T00:02:13.522Z,23.3600
2023-01-04T00:02:24.747Z,23.3600
2023-01-04T00:02:36.051Z,23.3600
2023-01-04T00:02:47.459Z,23.3600
2023-01-04T00:02:58.689Z,23.3600
2023-01-04T00:03:10.015Z,23.3600
2023-01-04T00:03:21.405Z,23.3600
2023-01-04T00:03:32.897Z,23.3500
2023-01-04T00:03:44.510Z,23.3500
2023-01-04T00:03:55.981Z,23.3500
2023-01-04T00:04:07.265Z,23.3500
2023-01-04T00:04:18.485Z,23.3500
2023-01-04T00:04:29.678Z,23.3500
2023-01-04T00:04:40.872Z,23.3500
2023-01-04T00:04:52.075Z,23.3500
2023-01-04T00:05:03.292Z,23.3500
2023-01-04T00:05:14.346Z,23.3600
2023-01-04T00:05:25.413Z,23.3600
2023-01-04T00:05:36.493Z,23.3700
2023-01-04T00:05:47.563Z,23.3700
2023-01-04T00:05:58.644Z,23.3800
2023-01-04T00:06:09.832Z,23.3900
2023-01-04T00:06:20.898Z,23.3900
2023-01-04T00:06:31.980Z,23.4000
2023-01-04T00:06:43.112Z,23.4000
2023-01-04T00:06:54.152Z,23.4000
2023-01-04T00:07:05.225Z,23.4100
2023-01-04T00:07:16.395Z,23.4100
2023-01-04T00:07:27.438Z,23.4100
2023-01-04T00:07:38.503Z,23.4100
2023-01-04T00:07:49.669Z,23.4100
2023-01-04T00:08:00.740Z,23.4000
2023-01-04T00:08:11.790Z,23.4000
2023-01-04T00:08:22.953Z,23.4000
2023-01-04T00:08:34.026Z,23.4000
2023-01-04T00:08:45.116Z,23.4000
2023-01-04T00:08:56.262Z,23.4000
2023-01-04T00:09:07.449Z,23.4000
2023-01-04T00:09:18.628Z,23.3900
2023-01-04T00:09:29.834Z,23.3900
2023-01-04T00:09:40.892Z,23.3900
2023-01-04T00:09:52.007Z,23.4000
2023-01-04T00:10:03.109Z,23.4000
2023-01-04T00:10:14.177Z,23.4000
2023-01-04T00:10:25.251Z,23.3900
2023-01-04T00:10:36.392Z,23.3900
2023-01-04T00:10:47.458Z,23.3900
2023-01-04T00:10:58.528Z,23.3900
2023-01-04T00:11:09.666Z,23.4000
2023-01-04T00:11:20.894Z,23.4000
2023-01-04T00:11:32.082Z,23.4000
2023-01-04T00:11:43.162Z,23.4000
2023-01-04T00:11:54.217Z,23.4000
2023-01-04T00:12:05.351Z,23.4100
2023-01-04T00:12:16.543Z,23.4100
2023-01-04T00:12:27.751Z,23.4100
2023-01-04T00:12:38.951Z,23.4000
2023-01-04T00:12:50.161Z,23.3900
2023-01-04T00:13:01.347Z,23.3900
2023-01-04T00:13:12.549Z,23.3800
2023-01-04T00:13:23.757Z,23.3900
2023-01-04T00:13:34.950Z,23.3800
2023-01-04T00:13:46.018Z,23.3800
2023-01-04T00:13:57.113Z,23.3700
2023-01-04T00:14:08.227Z,23.3700
2023-01-04T00:14:19.431Z,23.3700
2023-01-04T00:14:30.622Z,23.3800
2023-01-04T00:14:41.853Z,23.3800
2023-01-04T00:14:53.027Z,23.3800
2023-01-04T00:15:04.138Z,23.3800
2023-01-04T00:15:15.212Z,23.3800
2023-01-04T00:15:26.545Z,23.3800
2023-01-04T00:15:37.902Z,23.3800
2023-01-04T00:15:49.120Z,23.3800
2023-01-04T00:16:07.357Z,23.3800
2023-01-04T00:16:17.280Z,23.3900
2023-01-04T00:16:28.642Z,23.3700
2023-01-04T00:16:40.034Z,23.3700
2023-01-04T00:16:51.285Z,23.3800
2023-01-04T00:17:02.354Z,23.3800
2023-01-04T00:17:13.509Z,23.3900
2023-01-04T00:17:24.710Z,23.4000
2023-01-04T00:17:35.779Z,23.4000
2023-01-04T00:17:46.841Z,23.4000
2023-01-04T00:17:57.900Z,23.4000
2023-01-04T00:18:09.000Z,23.4000
2023-01-04T00:18:20.061Z,23.4000
2023-01-04T00:18:31.119Z,23.3900
2023-01-04T00:18:42.205Z,23.3900
2023-01-04T00:18:53.242Z,23.3900
2023-01-04T00:19:04.334Z,23.3900
2023-01-04T00:19:15.431Z,23.3900
2023-01-04T00:19:26.621Z,23.3900
2023-01-04T00:19:37.834Z,23.3900
2023-01-04T00:19:49.041Z,23.3900
2023-01-04T00:20:00.234Z,23.3900
2023-01-04T00:20:11.309Z,23.3800
2023-01-04T00:20:22.399Z,23.3800
2023-01-04T00:20:33.517Z,23.3800
2023-01-04T00:20:44.715Z,23.3900
2023-01-04T00:20:55.912Z,23.3900
2023-01-04T00:21:07.114Z,23.3900
2023-01-04T00:21:18.198Z,23.3900
2023-01-04T00:21:29.253Z,23.3900
2023-01-04T00:21:40.400Z,23.3900
2023-01-04T00:21:51.599Z,23.3800
2023-01-04T00:22:02.796Z,23.3800
2023-01-04T00:22:14.001Z,23.3800
2023-01-04T00:22:25.193Z,23.3800
2023-01-04T00:22:36.395Z,23.3800
2023-01-04T00:22:47.586Z,23.3700
2023-01-04T00:22:58.798Z,23.3700
2023-01-04T00:23:10.000Z,23.3600
2023-01-04T00:23:21.072Z,23.3600
2023-01-04T00:23:32.131Z,23.3600
2023-01-04T00:23:43.178Z,23.3600
2023-01-04T00:23:54.229Z,23.3600
2023-01-04T00:24:05.379Z,23.3700
2023-01-04T00:24:16.540Z,23.3700
2023-01-04T00:24:27.619Z,23.3700
2023-01-04T00:24:38.697Z,23.3700
2023-01-04T00:24:49.838Z,23.3700
2023-01-04T00:25:01.027Z,23.3700
2023-01-04T00:25:12.234Z,23.3600
2023-01-04T00:25:23.440Z,23.3500
2023-01-04T00:25:34.629Z,23.3500
2023-01-04T00:25:45.821Z,23.3500
2023-01-04T00:25:57.031Z,23.3500
2023-01-04T00:26:08.222Z,23.3600
2023-01-04T00:26:19.432Z,23.3500
2023-01-04T00:26:30.504Z,23.3500
2023-01-04T00:26:41.581Z,23.3500
2023-01-04T00:26:52.710Z,23.3500
2023-01-04T00:27:03.753Z,23.3500
2023-01-04T00:27:14.817Z,23.3500
2023-01-04T00:27:25.990Z,23.3500
2023-01-04T00:27:37.058Z,23.3500
2023-01-04T00:27:48.138Z,23.3500
2023-01-04T00:27:59.271Z,23.3500
2023-01-04T00:28:10.342Z,23.3500
2023-01-04T00:28:21.411Z,23.3500
2023-01-04T00:28:32.558Z,23.3400
2023-01-04T00:28:48.356Z,23.3500
2023-01-04T00:29:00.730Z,23.3500
2023-01-04T00:29:11.812Z,23.3200
2023-01-04T00:29:22.893Z,23.3200
2023-01-04T00:29:33.953Z,23.3200
2023-01-04T00:29:45.218Z,23.3300
2023-01-04T00:29:56.388Z,23.3300
2023-01-04T00:30:07.597Z,23.3200
2023-01-04T00:30:18.651Z,23.3200
2023-01-04T00:30:29.731Z,23.3200
2023-01-04T00:30:40.875Z,23.3200
2023-01-04T00:30:51.922Z,23.3200
2023-01-04T00:31:03.077Z,23.3300
2023-01-04T00:31:14.196Z,23.3300
2023-01-04T00:31:25.464Z,23.3300
2023-01-04T00:31:36.583Z,23.3400
2023-01-04T00:31:47.845Z,23.3400
2023-01-04T00:31:59.021Z,23.3500
2023-01-04T00:32:10.149Z,23.3500
2023-01-04T00:32:21.343Z,23.3500
2023-01-04T00:32:32.546Z,23.3500
2023-01-04T00:32:43.754Z,23.3500
2023-01-04T00:32:54.811Z,23.3400
2023-01-04T00:33:05.887Z,23.3400
2023-01-04T00:33:17.063Z,23.3400
2023-01-04T00:33:28.111Z,23.3400
2023-01-04T00:33:39.164Z,23.3400
2023-01-04T00:33:50.310Z,23.3300
2023-01-04T00:34:01.378Z,23.3300
2023-01-04T00:34:12.471Z,23.3200
2023-01-04T00:34:23.620Z,23.3200
2023-01-04T00:34:34.667Z,23.3200
2023-01-04T00:34:45.732Z,23.3200
2023-01-04T00:34:56.866Z,23.3200
2023-01-04T00:35:07.951Z,23.3200
2023-01-04T00:35:44.133Z,23.3200
2023-01-04T00:35:45.627Z,23.3200
2023-01-04T00:35:52.922Z,23.3000
2023-01-04T00:36:04.098Z,23.2800
2023-01-04T00:36:15.271Z,23.2900
2023-01-04T00:36:26.466Z,23.3000
2023-01-04T00:36:37.672Z,23.3100
2023-01-04T00:36:48.871Z,23.3100
2023-01-04T00:37:00.100Z,23.3100
2023-01-04T00:37:11.170Z,23.3100
2023-01-04T00:37:22.242Z,23.3200
2023-01-04T00:37:33.347Z,23.3200
2023-01-04T00:37:48.343Z,23.3200
2023-01-04T00:38:01.516Z,23.3300
2023-01-04T00:38:12.624Z,23.3100
2023-01-04T00:38:23.666Z,23.3100
2023-01-04T00:38:34.723Z,23.3200
2023-01-04T00:38:45.776Z,23.3200
2023-01-04T00:38:56.879Z,23.3200
2023-01-04T00:39:08.905Z,23.3300
2023-01-04T00:39:20.330Z,23.3300
2023-01-04T00:39:31.426Z,23.3300
2023-01-04T00:39:42.471Z,23.3300
2023-01-04T00:39:53.529Z,23.3300
2023-01-04T00:40:04.716Z,23.3300
2023-01-04T00:40:15.901Z,23.3300
2023-01-04T00:40:27.111Z,23.3300
2023-01-04T00:40:38.314Z,23.3300
2023-01-04T00:40:49.397Z,23.3300
2023-01-04T00:41:00.466Z,23.3300
2023-01-04T00:41:28.267Z,23.3400
2023-01-04T00:41:57.633Z,23.3400
2023-01-04T00:42:01.713Z,23.3200
2023-01-04T00:42:02.492Z,23.3100
2023-01-04T00:42:13.527Z,23.3000
2023-01-04T00:42:24.586Z,23.3000
2023-01-04T00:42:35.672Z,23.3200
2023-01-04T00:42:46.707Z,23.3300
2023-01-04T00:42:57.839Z,23.3300
2023-01-04T00:43:09.039Z,23.3300
2023-01-04T00:43:20.099Z,23.3400
2023-01-04T00:43:31.192Z,23.3400
2023-01-04T00:43:42.321Z,23.3400
2023-01-04T00:43:53.522Z,23.3400
2023-01-04T00:44:04.728Z,23.3400
2023-01-04T00:44:15.907Z,23.3300
2023-01-04T00:44:27.138Z,23.3300
2023-01-04T00:44:38.313Z,23.3300
2023-01-04T00:44:49.534Z,23.3300
2023-01-04T00:45:00.707Z,23.3300
2023-01-04T00:45:11.913Z,23.3300
2023-01-04T00:45:22.974Z,23.3300
2023-01-04T00:45:34.057Z,23.3300
2023-01-04T00:45:45.378Z,23.3300
2023-01-04T00:45:56.811Z,23.3300
2023-01-04T00:46:07.960Z,23.3300
2023-01-04T00:46:19.155Z,23.3400
2023-01-04T00:46:30.337Z,23.3400
2023-01-04T00:46:41.495Z,23.3400
2023-01-04T00:46:52.844Z,23.3400
2023-01-04T00:47:03.980Z,23.3400
2023-01-04T00:47:15.131Z,23.3500
2023-01-04T00:47:26.310Z,23.3500
2023-01-04T00:47:37.387Z,23.3500
2023-01-04T00:47:48.441Z,23.3500
2023-01-04T00:47:59.517Z,23.3500
2023-01-04T00:48:10.597Z,23.3500
2023-01-04T00:48:21.675Z,23.3500
2023-01-04T00:48:35.380Z,23.3500
2023-01-04T00:48:50.912Z,23.3400
2023-01-04T00:49:03.963Z,23.3200
2023-01-04T00:49:15.108Z,23.3000
2023-01-04T00:49:26.314Z,23.3100
2023-01-04T00:49:37.407Z,23.3200
2023-01-04T00:49:48.456Z,23.3200
2023-01-04T00:49:59.588Z,23.3200
2023-01-04T00:50:10.786Z,23.3200
2023-01-04T00:50:21.993Z,23.3200
2023-01-04T00:50:33.104Z,23.3200
2023-01-04T00:50:44.185Z,23.3100
2023-01-04T00:50:55.290Z,23.3100
2023-01-04T00:51:06.347Z,23.3100
2023-01-04T00:51:17.416Z,23.3100
2023-01-04T00:51:28.559Z,23.3200
2023-01-04T00:51:39.747Z,23.3100
2023-01-04T00:51:50.948Z,23.3100
2023-01-04T00:52:02.166Z,23.3200
2023-01-04T00:52:13.351Z,23.3200
2023-01-04T00:52:24.552Z,23.3100
2023-01-04T00:52:35.688Z,23.3100
2023-01-04T00:52:46.732Z,23.3000
2023-01-04T00:52:57.780Z,23.3000
2023-01-04T00:53:08.838Z,23.3000
2023-01-04T00:53:19.891Z,23.3000
2023-01-04T00:53:31.113Z,23.3000
2023-01-04T00:53:42.176Z,23.3100
2023-01-04T00:53:53.240Z,23.3100
2023-01-04T00:54:04.390Z,23.3000
2023-01-04T00:54:15.591Z,23.3000
2023-01-04T00:54:26.629Z,23.3100
2023-01-04T00:54:37.724Z,23.3100
2023-01-04T00:54:48.880Z,23.3200
2023-01-04T00:55:00.116Z,23.3200
2023-01-04T00:55:11.281Z,23.3200
2023-01-04T00:55:22.472Z,23.3300
2023-01-04T00:55:33.560Z,23.3300
2023-01-04T00:55:44.626Z,23.3300
2023-01-04T00:55:55.747Z,23.3400
2023-01-04T00:56:06.961Z,23.3400
2023-01-04T00:56:18.191Z,23.3500
2023-01-04T00:56:29.351Z,23.3500
2023-01-04T00:56:40.436Z,23.3500
2023-01-04T00:56:51.554Z,23.3500
2023-01-04T00:57:02.648Z,23.3500
2023-01-04T00:57:13.828Z,23.3500
2023-01-04T00:57:25.033Z,23.3500
2023-01-04T00:57:36.230Z,23.3500
2023-01-04T00:57:47.272Z,23.3500
2023-01-04T00:57:58.327Z,23.3400
2023-01-04T00:58:09.515Z,23.3400
2023-01-04T00:58:20.698Z,23.3400
2023-01-04T00:58:31.912Z,23.3400
2023-01-04T00:58:43.105Z,23.3400
2023-01-04T00:58:54.319Z,23.3300
2023-01-04T00:59:05.509Z,23.3300
2023-01-04T00:59:16.736Z,23.3400
2023-01-04T00:59:27.926Z,23.3400
2023-01-04T00:59:39.001Z,23.3400
2023-01-04T00:59:50.056Z,23.3500
2023-01-04T01:00:01.228Z,23.3500
2023-01-04T01:00:12.387Z,23.3500
2023-01-04T01:00:23.429Z,23.3500
2023-01-04T01:00:34.471Z,23.3500
2023-01-04T01:00:45.541Z,23.3500
2023-01-04T01:00:56.601Z,23.3500
2023-01-04T01:01:07.862Z,23.3500
2023-01-04T01:01:19.083Z,23.3500
2023-01-04T01:01:30.333Z,23.3500
2023-01-04T01:01:41.519Z,23.3500
2023-01-04T01:01:52.873Z,23.3400
2023-01-04T01:02:04.197Z,23.3400
2023-01-04T01:02:15.514Z,23.3300
2023-01-04T01:02:27.122Z,23.3300
2023-01-04T01:02:38.585Z,23.3200
2023-01-04T01:02:50.175Z,23.3200
2023-01-04T01:03:01.885Z,23.3100
2023-01-04T01:03:13.351Z,23.3100
2023-01-04T01:03:24.607Z,23.3100
2023-01-04T01:03:38.733Z,23.3100
2023-01-04T01:03:50.094Z,23.3100
2023-01-04T01:04:01.293Z,23.2900
2023-01-04T01:04:12.565Z,23.3000
2023-01-04T01:04:24.139Z,23.3000
2023-01-04T01:04:35.469Z,23.3000
2023-01-04T01:04:46.772Z,23.3000
2023-01-04T01:04:57.829Z,23.3100
2023-01-04T01:05:09.031Z,23.3100
2023-01-04T01:05:20.235Z,23.3100
2023-01-04T01:05:31.427Z,23.3100
2023-01-04T01:05:42.630Z,23.3100
2023-01-04T01:05:53.860Z,23.3100
2023-01-04T01:06:05.031Z,23.3100
2023-01-04T01:06:16.220Z,23.3100
2023-01-04T01:06:27.432Z,23.3200
2023-01-04T01:06:38.627Z,23.3200
2023-01-04T01:06:49.857Z,23.3200
2023-01-04T01:07:00.910Z,23.3200
2023-01-04T01:07:11.980Z,23.3200
2023-01-04T01:07:23.111Z,23.3300
2023-01-04T01:07:34.147Z,23.3300
2023-01-04T01:07:45.204Z,23.3300
2023-01-04T01:07:56.390Z,23.3300
2023-01-04T01:08:07.462Z,23.3300
2023-01-04T01:08:18.550Z,23.3300
2023-01-04T01:08:29.671Z,23.3300
2023-01-04T01:08:40.717Z,23.3300
2023-01-04T01:08:51.795Z,23.3300
2023-01-04T01:09:02.950Z,23.3300
2023-01-04T01:09:13.991Z,23.3400
2023-01-04T01:09:25.031Z,23.3300
2023-01-04T01:09:36.236Z,23.3300
2023-01-04T01:09:47.474Z,23.3400
2023-01-04T01:09:58.627Z,23.3400
2023-01-04T01:10:09.837Z,23.3300
2023-01-04T01:10:21.031Z,23.3300
2023-01-04T01:10:32.231Z,23.3300
2023-01-04T01:10:43.299Z,23.3300
2023-01-04T01:10:54.345Z,23.3400
2023-01-04T01:11:05.396Z,23.3400
2023-01-04T01:11:16.471Z,23.3400
2023-01-04T01:11:27.586Z,23.3300
2023-01-04T01:11:38.791Z,23.3300
2023-01-04T01:11:49.990Z,23.3300
2023-01-04T01:12:01.101Z,23.3300
2023-01-04T01:12:12.184Z,23.3300
2023-01-04T01:12:23.238Z,23.3300
2023-01-04T01:12:34.293Z,23.3300
2023-01-04T01:12:45.363Z,23.3300
2023-01-04T01:12:56.448Z,23.3300
2023-01-04T01:13:07.639Z,23.3300
2023-01-04T01:13:18.857Z,23.3300
2023-01-04T01:13:30.062Z,23.3200
2023-01-04T01:13:41.162Z,23.3200
2023-01-04T01:13:52.207Z,23.3200
2023-01-04T01:14:03.336Z,23.3200
2023-01-04T01:14:14.383Z,23.3200
2023-01-04T01:14:25.463Z,23.3200
2023-01-04T01:14:36.616Z,23.3200
2023-01-04T01:14:47.727Z,23.3200
2023-01-04T01:15:00.717Z,23.3100
2023-01-04T01:15:12.186Z,23.3200
2023-01-04T01:15:23.321Z,23.3100
2023-01-04T01:15:34.430Z,23.3100
2023-01-04T01:15:45.522Z,23.3100
2023-01-04T01:15:56.709Z,23.3100
2023-01-04T01:16:07.995Z,23.3100
2023-01-04T01:16:37.960Z,23.3100
2023-01-04T01:16:55.877Z,23.2800
2023-01-04T01:17:08.065Z,23.2600
2023-01-04T01:17:19.202Z,23.2500
2023-01-04T01:17:30.358Z,23.2700
2023-01-04T01:17:41.568Z,23.2800
2023-01-04T01:17:52.776Z,23.2800
2023-01-04T01:18:03.968Z,23.2800
2023-01-04T01:18:15.175Z,23.2800
2023-01-04T01:18:26.359Z,23.2900
2023-01-04T01:18:37.576Z,23.2900
2023-01-04T01:18:48.640Z,23.2900
2023-01-04T01:18:59.714Z,23.2900
2023-01-04T01:19:10.851Z,23.3000
2023-01-04T01:19:22.054Z,23.3000
2023-01-04T01:19:33.262Z,23.3000
2023-01-04T01:19:44.457Z,23.3000
2023-01-04T01:19:55.538Z,23.3000
2023-01-04T01:20:06.597Z,23.3000
2023-01-04T01:20:17.730Z,23.3100
2023-01-04T01:20:28.933Z,23.3000
2023-01-04T01:20:40.120Z,23.3000
2023-01-04T01:20:51.334Z,23.3000
2023-01-04T01:21:02.533Z,23.3000
2023-01-04T01:21:13.743Z,23.3000
2023-01-04T01:21:24.801Z,23.3000
2023-01-04T01:21:35.891Z,23.3000
2023-01-04T01:21:47.012Z,23.3100
2023-01-04T01:21:58.453Z,23.3100
2023-01-04T01:22:09.788Z,23.3100
2023-01-04T01:22:20.932Z,23.3100
2023-01-04T01:22:32.119Z,23.3100
2023-01-04T01:22:43.175Z,23.3100
2023-01-04T01:22:54.266Z,23.3100
2023-01-04T01:23:05.319Z,23.3100
2023-01-04T01:23:16.383Z,23.3100
2023-01-04T01:23:27.483Z,23.3000
2023-01-04T01:23:38.559Z,23.3100
2023-01-04T01:23:49.620Z,23.3100
2023-01-04T01:24:00.769Z,23.3100
2023-01-04T01:24:11.839Z,23.3000
2023-01-04T01:24:22.931Z,23.3000
2023-01-04T01:24:34.048Z,23.3000
2023-01-04T01:24:45.239Z,23.3000
2023-01-04T01:24:56.491Z,23.3000
2023-01-04T01:25:07.648Z,23.3000
2023-01-04T01:25:18.679Z,23.3000
2023-01-04T01:25:29.734Z,23.3000
2023-01-04T01:25:40.940Z,23.3100
2023-01-04T01:25:52.114Z,23.3100
2023-01-04T01:26:03.375Z,23.3000
2023-01-04T01:26:14.519Z,23.3000
2023-01-04T01:26:25.730Z,23.3000
2023-01-04T01:26:36.800Z,23.3000
2023-01-04T01:26:47.860Z,23.3000
2023-01-04T01:26:59.009Z,23.3000
2023-01-04T01:27:10.067Z,23.2900
2023-01-04T01:27:21.140Z,23.2900
2023-01-04T01:27:32.205Z,23.2900
2023-01-04T01:27:43.283Z,23.2900
2023-01-04T01:27:54.360Z,23.2900
2023-01-04T01:28:05.569Z,23.2900
2023-01-04T01:28:16.778Z,23.2900
2023-01-04T01:28:27.959Z,23.2800
2023-01-04T01:28:39.026Z,23.2800
2023-01-04T01:28:50.122Z,23.2700
2023-01-04T01:29:01.158Z,23.2800
2023-01-04T01:29:12.236Z,23.2800
2023-01-04T01:29:23.339Z,23.2800
2023-01-04T01:29:34.519Z,23.2800
2023-01-04T01:29:45.559Z,23.2900
2023-01-04T01:29:56.660Z,23.2800
2023-01-04T01:30:07.813Z,23.2800
2023-01-04T01:30:19.025Z,23.2800
2023-01-04T01:30:30.219Z,23.2900
2023-01-04T01:30:41.657Z,23.2900
2023-01-04T01:30:53.059Z,23.2900
2023-01-04T01:31:08.489Z,23.2900
2023-01-04T01:31:21.185Z,23.2900
2023-01-04T01:31:32.321Z,23.2700
2023-01-04T01:31:43.421Z,23.2700
2023-01-04T01:31:54.687Z,23.2800
2023-01-04T01:32:05.888Z,23.2900
2023-01-04T01:32:17.084Z,23.2900
2023-01-04T01:32:28.294Z,23.3000
2023-01-04T01:32:39.479Z,23.2900
2023-01-04T01:32:50.698Z,23.2900
2023-01-04T01:33:01.881Z,23.3000
2023-01-04T01:33:13.095Z,23.3000
2023-01-04T01:33:24.279Z,23.2900
2023-01-04T01:33:35.559Z,23.2900
2023-01-04T01:33:46.565Z,23.3000
2023-01-04T01:33:57.620Z,23.3000
2023-01-04T01:34:08.763Z,23.3000
2023-01-04T01:34:19.962Z,23.3000
2023-01-04T01:34:31.025Z,23.3000
2023-01-04T01:34:42.088Z,23.3000
2023-01-04T01:34:53.113Z,23.3000
2023-01-04T01:35:04.247Z,23.3000
2023-01-04T01:35:15.320Z,23.3000
2023-01-04T01:35:26.534Z,23.3000
2023-01-04T01:35:37.723Z,23.3000
2023-01-04T01:35:48.934Z,23.2900
2023-01-04T01:36:00.128Z,23.2900
2023-01-04T01:36:11.352Z,23.2900
2023-01-04T01:36:22.398Z,23.2800
2023-01-04T01:36:33.461Z,23.2800
2023-01-04T01:36:44.639Z,23.2800
2023-01-04T01:36:55.683Z,23.2900
2023-01-04T01:37:06.784Z,23.2900
2023-01-04T01:37:17.890Z,23.2800
2023-01-04T01:37:29.115Z,23.2900
2023-01-04T01:37:40.299Z,23.2900
2023-01-04T01:37:51.495Z,23.2900
2023-01-04T01:38:02.563Z,23.2900
2023-01-04T01:38:13.684Z,23.2900
2023-01-04T01:38:24.782Z,23.3000
2023-01-04T01:38:35.845Z,23.3000
2023-01-04T01:38:46.926Z,23.3000
2023-01-04T01:38:58.055Z,23.3000
2023-01-04T01:39:09.124Z,23.3000
2023-01-04T01:39:20.195Z,23.3000
2023-01-04T01:39:31.323Z,23.3000
2023-01-04T01:39:42.538Z,23.3000
2023-01-04T01:39:53.611Z,23.3000
2023-01-04T01:40:04.696Z,23.2900
2023-01-04T01:40:15.763Z,23.2900
2023-01-04T01:40:26.829Z,23.2900
2023-01-04T01:40:37.883Z,23.2900
2023-01-04T01:40:49.108Z,23.2900
2023-01-04T01:41:00.287Z,23.2900
2023-01-04T01:41:11.505Z,23.2900
2023-01-04T01:41:22.586Z,23.2900
2023-01-04T01:41:33.650Z,23.2800
2023-01-04T01:41:44.756Z,23.2800
2023-01-04T01:41:55.990Z,23.2800
2023-01-04T01:42:07.155Z,23.2800
2023-01-04T01:42:18.373Z,23.2800
2023-01-04T01:42:29.435Z,23.2800
2023-01-04T01:42:40.505Z,23.2700
2023-01-04T01:42:51.568Z,23.2700
2023-01-04T01:43:02.652Z,23.2600
2023-01-04T01:43:13.718Z,23.2700
2023-01-04T01:43:24.762Z,23.2700
2023-01-04T01:43:35.838Z,23.2700
2023-01-04T01:43:46.999Z,23.2700
2023-01-04T01:43:58.210Z,23.2700
2023-01-04T01:44:09.404Z,23.2700
2023-01-04T01:44:20.455Z,23.2700
2023-01-04T01:44:31.530Z,23.2700
2023-01-04T01:44:42.604Z,23.2700
2023-01-04T01:44:53.695Z,23.2700
2023-01-04T01:45:05.024Z,23.2700
2023-01-04T01:45:16.168Z,23.2700
2023-01-04T01:45:27.270Z,23.2700
2023-01-04T01:45:38.382Z,23.2700
2023-01-04T01:45:49.567Z,23.2700
2023-01-04T01:46:00.871Z,23.2700
2023-01-04T01:46:12.017Z,23.2700
2023-01-04T01:46:23.248Z,23.2700
2023-01-04T01:46:34.425Z,23.2700
2023-01-04T01:46:45.536Z,23.2700
2023-01-04T01:46:56.887Z,23.2700
2023-01-04T01:47:08.015Z,23.2700
2023-01-04T01:47:19.167Z,23.2700
2023-01-04T01:47:30.247Z,23.2800
2023-01-04T01:47:41.314Z,23.2800
2023-01-04T01:47:52.365Z,23.2800
2023-01-04T01:48:03.419Z,23.2700
2023-01-04T01:48:14.537Z,23.2700
2023-01-04T01:48:25.729Z,23.2700
2023-01-04T01:48:36.933Z,23.2700
2023-01-04T01:48:47.993Z,23.2700
2023-01-04T01:48:59.057Z,23.2600
2023-01-04T01:49:10.214Z,23.2600
2023-01-04T01:49:21.406Z,23.2700
2023-01-04T01:49:32.620Z,23.2700
2023-01-04T01:49:43.825Z,23.2700
2023-01-04T01:49:55.011Z,23.2700
2023-01-04T01:50:06.255Z,23.2700
2023-01-04T01:50:17.410Z,23.2700
2023-01-04T01:50:28.464Z,23.2700
2023-01-04T01:50:39.529Z,23.2800
2023-01-04T01:50:50.712Z,23.2800
2023-01-04T01:51:01.877Z,23.2800
2023-01-04T01:51:13.082Z,23.2800
2023-01-04T01:51:24.284Z,23.2800
2023-01-04T01:51:35.334Z,23.2800
2023-01-04T01:51:46.426Z,23.2800
2023-01-04T01:51:57.578Z,23.2900
2023-01-04T01:52:08.653Z,23.2900
2023-01-04T01:52:19.744Z,23.2800
2023-01-04T01:52:30.849Z,23.2800
2023-01-04T01:52:42.054Z,23.2800
2023-01-04T01:52:53.241Z,23.2800
2023-01-04T01:53:04.453Z,23.2800
2023-01-04T01:53:15.525Z,23.2800
2023-01-04T01:53:26.620Z,23.2800
2023-01-04T01:53:37.772Z,23.2800
2023-01-04T01:53:48.884Z,23.2800
2023-01-04T01:54:00.151Z,23.2800
2023-01-04T01:54:11.334Z,23.2800
2023-01-04T01:54:22.522Z,23.2800
2023-01-04T01:54:33.734Z,23.2700
2023-01-04T01:54:44.925Z,23.2700
2023-01-04T01:54:56.137Z,23.2700
2023-01-04T01:55:07.355Z,23.2700
2023-01-04T01:55:18.410Z,23.2600
2023-01-04T01:55:29.483Z,23.2600
2023-01-04T01:55:40.617Z,23.2600
2023-01-04T01:55:51.791Z,23.2600
2023-01-04T01:56:03.017Z,23.2600
2023-01-04T01:56:14.198Z,23.2600
2023-01-04T01:56:25.423Z,23.2600
2023-01-04T01:56:36.606Z,23.2600
2023-01-04T01:56:47.802Z,23.2600
2023-01-04T01:56:59.003Z,23.2600
2023-01-04T01:57:10.200Z,23.2700
2023-01-04T01:57:21.248Z,23.2700
2023-01-04T01:57:32.336Z,23.2700
2023-01-04T01:57:43.498Z,23.2800
2023-01-04T01:57:54.547Z,23.2800
2023-01-04T01:58:05.620Z,23.2700
2023-01-04T01:58:16.787Z,23.2800
2023-01-04T01:58:27.834Z,23.2800
2023-01-04T01:58:38.912Z,23.2700
2023-01-04T01:58:50.094Z,23.2700
2023-01-04T01:59:01.141Z,23.2700
2023-01-04T01:59:12.214Z,23.2700
2023-01-04T01:59:23.324Z,23.2700
2023-01-04T01:59:34.406Z,23.2800
2023-01-04T01:59:45.462Z,23.2800
2023-01-04T01:59:56.609Z,23.2900
2023-01-04T02:00:07.840Z,23.2900
2023-01-04T02:00:19.003Z,23.2900
2023-01-04T02:00:30.229Z,23.2900
2023-01-04T02:00:41.277Z,23.2900
2023-01-04T02:00:52.348Z,23.2900
2023-01-04T02:01:03.480Z,23.2900
2023-01-04T02:01:14.896Z,23.2900
2023-01-04T02:01:26.376Z,23.2900
2023-01-04T02:01:37.619Z,23.2900
2023-01-04T02:01:48.811Z,23.2900
2023-01-04T02:02:00.329Z,23.2900
2023-01-04T02:02:11.788Z,23.2900
2023-01-04T02:02:23.118Z,23.2900
2023-01-04T02:02:34.589Z,23.2900
2023-01-04T02:02:46.097Z,23.2900
2023-01-04T02:02:57.635Z,23.2900
2023-01-04T02:03:09.122Z,23.3000
2023-01-04T02:03:20.432Z,23.3000
2023-01-04T02:03:31.783Z,23.3000
2023-01-04T02:03:42.975Z,23.3000
2023-01-04T02:03:54.099Z,23.3000
2023-01-04T02:04:05.341Z,23.3000
2023-01-04T02:04:16.550Z,23.3000
2023-01-04T02:04:27.678Z,23.3000
2023-01-04T02:04:38.847Z,23.3000
2023-01-04T02:04:50.062Z,23.2900
2023-01-04T02:05:01.264Z,23.2900
2023-01-04T02:05:12.484Z,23.2800
2023-01-04T02:05:23.532Z,23.2800
2023-01-04T02:05:34.615Z,23.2800
2023-01-04T02:05:45.720Z,23.2700
2023-01-04T02:05:56.929Z,23.2700
2023-01-04T02:06:08.137Z,23.2700
2023-01-04T02:06:19.218Z,23.2700
2023-01-04T02:06:30.280Z,23.2600
2023-01-04T02:06:41.330Z,23.2600
2023-01-04T02:06:52.392Z,23.2600
2023-01-04T02:07:03.493Z,23.2600
2023-01-04T02:07:14.694Z,23.2600
2023-01-04T02:07:25.757Z,23.2600
2023-01-04T02:07:36.810Z,23.2600
2023-01-04T02:07:47.969Z,23.2600
2023-01-04T02:07:59.175Z,23.2600
2023-01-04T02:08:10.359Z,23.2600
2023-01-04T02:08:21.584Z,23.2500
2023-01-04T02:08:32.635Z,23.2500
2023-01-04T02:08:43.726Z,23.2500
2023-01-04T02:08:54.833Z,23.2400
2023-01-04T02:09:06.060Z,23.2400
2023-01-04T02:09:17.240Z,23.2300
2023-01-04T02:09:28.447Z,23.2300
2023-01-04T02:09:39.638Z,23.2300
2023-01-04T02:09:50.862Z,23.2300
2023-01-04T02:10:02.031Z,23.2300
2023-01-04T02:10:13.373Z,23.2300
2023-01-04T02:10:24.449Z,23.2300
2023-01-04T02:10:35.507Z,23.2200
2023-01-04T02:10:46.544Z,23.2200
2023-01-04T02:10:57.734Z,23.2300
2023-01-04T02:11:08.914Z,23.2300
2023-01-04T02:11:20.145Z,23.2300
2023-01-04T02:11:31.320Z,23.2400
2023-01-04T02:11:42.539Z,23.2400
2023-01-04T02:11:53.604Z,23.2400
2023-01-04T02:12:04.680Z,23.2500
2023-01-04T02:12:15.811Z,23.2500
2023-01-04T02:12:27.049Z,23.2500
2023-01-04T02:12:38.082Z,23.2500
2023-01-04T02:12:49.145Z,23.2500
2023-01-04T02:13:00.276Z,23.2500
2023-01-04T02:13:11.494Z,23.2500
2023-01-04T02:13:22.681Z,23.2500
2023-01-04T02:13:33.899Z,23.2500
2023-01-04T02:13:44.960Z,23.2500
2023-01-04T02:13:56.021Z,23.2500
2023-01-04T02:14:07.169Z,23.2600
2023-01-04T02:14:18.379Z,23.2500
2023-01-04T02:14:29.559Z,23.2500
2023-01-04T02:14:40.790Z,23.2600
2023-01-04T02:14:51.980Z,23.2600
2023-01-04T02:15:03.171Z,23.2600
2023-01-04T02:15:14.410Z,23.2600
2023-01-04T02:15:25.576Z,23.2600
2023-01-04T02:15:36.864Z,23.2600
2023-01-04T02:15:47.955Z,23.2600
2023-01-04T02:15:59.249Z,23.2600
2023-01-04T02:16:10.427Z,23.2600
2023-01-04T02:16:21.662Z,23.2700
2023-01-04T02:16:32.867Z,23.2700